Time;durP1;ratioP1;P1;durP2;ratioP2;P2;SDS_P1;SDS_P2;PMS_P1;PMS_P2;Temp;Humidity;BMP_temperature;BMP_pressure;BME280_temperature;BME280_humidity;BME280_pressure;Samples;Min_cycle;Max_cycle;Signal;HPM_P1;HPM_P2
2022/01/01 00:01:36;;;;;;;22.13;19.83;;;10.90;99.90;;;;;;5104933;28;20192;-77
2022/01/01 00:04:03;;;;;;;22.10;19.77;;;10.90;99.90;;;;;;5095200;28;20191;-76
2022/01/01 00:06:30;;;;;;;22.15;19.50;;;10.90;99.90;;;;;;5111073;28;20221;-77
2022/01/01 00:08:57;;;;;;;21.95;19.70;;;10.80;99.90;;;;;;5106516;28;20214;-77
2022/01/01 00:11:24;;;;;;;24.73;22.17;;;10.70;99.90;;;;;;5107766;28;20233;-77
2022/01/01 00:13:51;;;;;;;23.65;21.23;;;10.70;99.90;;;;;;5112815;27;20213;-77
2022/01/01 00:16:18;;;;;;;24.13;21.80;;;10.70;99.90;;;;;;5112259;28;20289;-77
2022/01/01 00:18:46;;;;;;;24.08;21.58;;;10.60;99.90;;;;;;5113397;28;20304;-77
2022/01/01 00:21:13;;;;;;;24.30;22.00;;;10.60;99.90;;;;;;5097742;27;20198;-77
2022/01/01 00:23:40;;;;;;;23.10;20.75;;;10.60;99.90;;;;;;5110973;28;20288;-77
2022/01/01 00:26:07;;;;;;;20.10;18.30;;;10.70;99.90;;;;;;5110410;27;20220;-77
2022/01/01 00:28:34;;;;;;;19.58;17.70;;;10.80;99.90;;;;;;5112759;28;20213;-77
2022/01/01 00:31:01;;;;;;;19.20;17.42;;;10.80;99.90;;;;;;5109558;27;20202;-77
2022/01/01 00:33:29;;;;;;;20.17;18.17;;;10.70;99.90;;;;;;5103106;28;20195;-77
2022/01/01 00:35:57;;;;;;;19.05;17.23;;;10.80;99.90;;;;;;5099896;27;20197;-77
2022/01/01 00:38:24;;;;;;;19.80;17.80;;;10.80;99.90;;;;;;5105311;27;20199;-77
2022/01/01 00:40:51;;;;;;;17.98;16.10;;;10.80;99.90;;;;;;5096922;28;20234;-77
2022/01/01 00:43:18;;;;;;;16.88;15.18;;;10.90;99.90;;;;;;5095309;28;20218;-77
2022/01/01 00:45:46;;;;;;;16.00;14.50;;;11.00;99.90;;;;;;5099649;28;20738;-77
2022/01/01 00:48:13;;;;;;;17.05;15.45;;;11.00;99.90;;;;;;5107655;27;20195;-77
2022/01/01 00:50:40;;;;;;;17.95;16.15;;;11.10;99.90;;;;;;5102711;28;20653;-77
2022/01/01 00:53:08;;;;;;;19.05;17.05;;;11.20;99.90;;;;;;5103274;28;20793;-77
2022/01/01 00:55:36;;;;;;;18.05;16.25;;;11.30;99.90;;;;;;5097755;28;20191;-77
2022/01/01 00:58:03;;;;;;;16.23;14.63;;;11.40;99.90;;;;;;5098195;28;20657;-77
2022/01/01 01:00:30;;;;;;;15.30;13.90;;;11.50;99.90;;;;;;5093867;28;20310;-76
2022/01/01 01:02:57;;;;;;;14.52;13.10;;;11.50;99.90;;;;;;5101651;28;20275;-77
2022/01/01 01:05:24;;;;;;;14.40;13.10;;;11.60;99.90;;;;;;5094288;28;20322;-77
2022/01/01 01:07:51;;;;;;;15.65;12.95;;;11.70;99.90;;;;;;5110427;28;20222;-77
2022/01/01 01:10:19;;;;;;;13.88;12.45;;;11.70;99.90;;;;;;5102021;28;20302;-77
2022/01/01 01:12:48;;;;;;;13.68;12.27;;;11.70;99.90;;;;;;5096688;28;20195;-77
2022/01/01 01:15:18;;;;;;;12.65;11.45;;;11.70;99.90;;;;;;5104780;28;20298;-77
2022/01/01 01:17:46;;;;;;;11.80;10.73;;;11.70;99.90;;;;;;5096816;28;20199;-77
2022/01/01 01:20:14;;;;;;;12.43;11.18;;;11.70;99.90;;;;;;5098083;28;20297;-77
2022/01/01 01:22:41;;;;;;;11.85;10.63;;;11.70;99.90;;;;;;5112753;28;20194;-77
2022/01/01 01:25:09;;;;;;;12.10;10.75;;;11.70;99.90;;;;;;5101372;28;20242;-77
2022/01/01 01:27:39;;;;;;;11.95;10.75;;;11.70;99.90;;;;;;5105511;28;20191;-77
2022/01/01 01:30:08;;;;;;;11.68;10.48;;;11.70;99.90;;;;;;5111624;28;20651;-77
2022/01/01 01:32:35;;;;;;;11.70;10.60;;;11.70;99.90;;;;;;5104668;28;20195;-77
2022/01/01 01:35:02;;;;;;;11.73;10.52;;;11.70;99.90;;;;;;5100328;28;20299;-77
2022/01/01 01:37:29;;;;;;;11.32;10.25;;;11.70;99.90;;;;;;5098622;28;20573;-77
2022/01/01 01:39:57;;;;;;;13.00;11.63;;;11.70;99.90;;;;;;5104267;27;20753;-77
2022/01/01 01:42:26;;;;;;;13.20;11.90;;;11.70;99.90;;;;;;5093853;28;20209;-77
2022/01/01 01:44:55;;;;;;;14.10;12.02;;;11.70;99.90;;;;;;5107916;28;20222;-78
2022/01/01 01:47:29;;;;;;;12.23;11.13;;;11.70;99.90;;;;;;5112656;28;20195;-76
2022/01/01 01:49:57;;;;;;;12.88;11.68;;;11.70;99.90;;;;;;5109467;28;20256;-76
2022/01/01 01:52:24;;;;;;;13.63;12.27;;;11.70;99.90;;;;;;5114926;28;20228;-76
2022/01/01 01:54:52;;;;;;;13.25;11.90;;;11.70;99.90;;;;;;5106239;28;20674;-76
2022/01/01 01:57:19;;;;;;;12.15;10.88;;;11.70;99.90;;;;;;5096931;28;20193;-77
2022/01/01 01:59:47;;;;;;;13.80;12.32;;;11.70;99.90;;;;;;5104371;28;20215;-75
2022/01/01 02:02:15;;;;;;;12.15;10.95;;;11.70;99.90;;;;;;5117970;28;20247;-76
2022/01/01 02:04:42;;;;;;;12.85;11.40;;;11.70;99.90;;;;;;5111730;28;20199;-77
2022/01/01 02:07:09;;;;;;;13.05;11.70;;;11.60;99.90;;;;;;5105131;28;20650;-75
2022/01/01 02:09:38;;;;;;;12.85;11.55;;;11.70;99.90;;;;;;5106135;27;20249;-77
2022/01/01 02:12:07;;;;;;;11.95;10.75;;;11.50;99.90;;;;;;5100103;28;20188;-78
2022/01/01 02:14:55;;;;;;;11.35;10.23;;;11.50;99.90;;;;;;5097268;28;20249;-79
2022/01/01 02:17:24;;;;;;;11.57;10.40;;;11.40;99.90;;;;;;5092346;28;20195;-79
2022/01/01 02:19:59;;;;;;;12.00;10.80;;;11.40;99.90;;;;;;5097546;28;20238;-80
2022/01/01 02:22:35;;;;;;;11.93;10.73;;;11.30;99.90;;;;;;5100744;28;20222;-87
2022/01/01 02:25:06;;;;;;;11.32;10.00;;;11.20;99.90;;;;;;5097391;28;20576;-89
2022/01/01 02:27:36;;;;;;;12.68;11.10;;;11.20;99.90;;;;;;5103036;28;20200;-91
2022/01/01 02:30:18;;;;;;;10.32;9.10;;;11.20;99.90;;;;;;5098520;27;20215;-91
2022/01/01 02:32:46;;;;;;;10.45;9.35;;;11.30;99.90;;;;;;5085695;28;20690;-83
2022/01/01 02:35:16;;;;;;;10.48;9.48;;;11.30;99.90;;;;;;5091924;27;20199;-81
2022/01/01 02:37:45;;;;;;;11.30;9.68;;;11.30;99.90;;;;;;5098258;28;20252;-84
2022/01/01 02:40:13;;;;;;;11.60;10.40;;;11.40;99.90;;;;;;5099507;27;20207;-82
2022/01/01 02:42:42;;;;;;;10.95;9.85;;;11.40;99.90;;;;;;5106619;28;20479;-82
2022/01/01 02:45:12;;;;;;;10.60;9.50;;;11.40;99.90;;;;;;5099705;28;20226;-81
2022/01/01 02:47:40;;;;;;;11.15;10.07;;;11.40;99.90;;;;;;5101225;28;20202;-81
2022/01/01 02:50:09;;;;;;;11.07;9.98;;;11.40;99.90;;;;;;5099919;28;20242;-82
2022/01/01 02:52:36;;;;;;;12.80;11.50;;;11.30;99.90;;;;;;5093565;28;20195;-82
2022/01/01 02:55:06;;;;;;;11.75;10.65;;;11.40;99.90;;;;;;5093842;28;20196;-81
2022/01/01 02:57:33;;;;;;;10.75;9.75;;;11.30;99.90;;;;;;5103432;28;20196;-82
2022/01/01 03:00:00;;;;;;;11.77;10.63;;;11.20;99.90;;;;;;5092954;28;20246;-82
2022/01/01 03:02:27;;;;;;;12.00;10.43;;;11.20;99.90;;;;;;5091008;28;20203;-82
2022/01/01 03:04:54;;;;;;;10.52;9.43;;;11.20;99.90;;;;;;5098961;28;20557;-81
2022/01/01 03:07:21;;;;;;;12.18;10.50;;;11.20;99.90;;;;;;5096200;28;20190;-82
2022/01/01 03:09:48;;;;;;;12.60;10.20;;;11.20;99.90;;;;;;5097540;28;20728;-82
2022/01/01 03:12:17;;;;;;;10.82;9.73;;;11.20;99.90;;;;;;5095980;28;20727;-82
2022/01/01 03:14:45;;;;;;;12.50;10.45;;;11.30;99.90;;;;;;5092635;28;20230;-81
2022/01/01 03:17:12;;;;;;;12.13;10.73;;;11.30;99.90;;;;;;5103022;28;20631;-81
2022/01/01 03:19:39;;;;;;;12.73;11.23;;;11.30;99.90;;;;;;5104054;28;20298;-81
2022/01/01 03:22:06;;;;;;;13.27;11.88;;;11.40;99.90;;;;;;5087689;28;20294;-82
2022/01/01 03:24:34;;;;;;;13.95;12.55;;;11.40;99.90;;;;;;5091741;28;20198;-83
2022/01/01 03:27:02;;;;;;;14.40;12.90;;;11.40;99.90;;;;;;5090742;28;20250;-82
2022/01/01 03:29:32;;;;;;;14.85;13.30;;;11.40;99.90;;;;;;5091195;28;20220;-82
2022/01/01 03:32:00;;;;;;;16.45;14.85;;;11.30;99.90;;;;;;5101797;28;20598;-82
2022/01/01 03:34:27;;;;;;;15.30;13.88;;;11.20;99.90;;;;;;5089888;28;20287;-82
2022/01/01 03:36:54;;;;;;;16.92;15.25;;;11.20;99.90;;;;;;5094751;28;20709;-82
2022/01/01 03:39:23;;;;;;;17.52;15.80;;;11.10;99.90;;;;;;5095502;28;20239;-82
2022/01/01 03:41:50;;;;;;;19.70;17.75;;;11.10;99.90;;;;;;5095402;28;20278;-82
2022/01/01 03:44:17;;;;;;;21.58;19.38;;;11.10;99.90;;;;;;5099992;28;20218;-82
2022/01/01 03:46:46;;;;;;;24.05;21.67;;;11.00;99.90;;;;;;5104506;28;20229;-82
2022/01/01 03:49:12;;;;;;;25.00;22.40;;;11.00;99.90;;;;;;5093154;28;20570;-82
2022/01/01 03:51:39;;;;;;;25.67;23.00;;;10.90;99.90;;;;;;5096180;28;20287;-82
2022/01/01 03:54:06;;;;;;;23.83;21.52;;;10.90;99.90;;;;;;5096212;28;20201;-81
2022/01/01 03:56:37;;;;;;;25.63;23.13;;;10.90;99.90;;;;;;5094599;28;20589;-81
2022/01/01 03:59:04;;;;;;;27.13;24.52;;;11.00;99.90;;;;;;5108557;28;20211;-81
2022/01/01 04:01:31;;;;;;;26.00;23.30;;;11.00;99.90;;;;;;5100504;28;20231;-81
2022/01/01 04:03:59;;;;;;;28.20;25.30;;;10.90;99.90;;;;;;5090255;28;20192;-81
2022/01/01 04:06:26;;;;;;;32.78;29.42;;;10.90;99.90;;;;;;5104009;28;20309;-82
2022/01/01 04:08:53;;;;;;;31.98;28.60;;;10.90;99.90;;;;;;5097687;28;20246;-81
2022/01/01 04:11:21;;;;;;;33.78;30.30;;;10.90;99.90;;;;;;5090084;28;20640;-81
2022/01/01 04:13:48;;;;;;;33.30;29.73;;;10.90;99.90;;;;;;5105101;28;20199;-81
2022/01/01 04:16:16;;;;;;;30.42;27.30;;;10.90;99.90;;;;;;5095053;28;20223;-80
2022/01/01 04:18:45;;;;;;;27.83;25.10;;;10.80;99.90;;;;;;5092680;28;20224;-81
2022/01/01 04:21:15;;;;;;;29.33;26.40;;;10.70;99.90;;;;;;5094299;28;20191;-81
2022/01/01 04:23:45;;;;;;;28.08;25.25;;;10.70;99.90;;;;;;5097957;28;20559;-81
2022/01/01 04:26:11;;;;;;;30.38;27.27;;;10.70;99.90;;;;;;5102425;28;20264;-81
2022/01/01 04:28:40;;;;;;;28.65;25.60;;;10.70;99.90;;;;;;5099931;28;20596;-81
2022/01/01 04:31:07;;;;;;;31.02;28.02;;;10.80;99.90;;;;;;5099865;28;20249;-81
2022/01/01 04:33:34;;;;;;;31.83;26.70;;;10.70;99.90;;;;;;5094953;28;20202;-81
2022/01/01 04:36:01;;;;;;;30.55;27.33;;;10.80;99.90;;;;;;5104043;28;20200;-81
2022/01/01 04:38:40;;;;;;;28.95;26.13;;;10.70;99.90;;;;;;5096991;28;20258;-81
2022/01/01 04:41:10;;;;;;;31.08;27.95;;;10.70;99.90;;;;;;5100814;27;20842;-80
2022/01/01 04:43:37;;;;;;;30.52;27.35;;;10.60;99.90;;;;;;5096122;27;20200;-80
2022/01/01 04:46:04;;;;;;;30.50;27.60;;;10.60;99.90;;;;;;5096197;28;20216;-81
2022/01/01 04:48:31;;;;;;;32.20;28.83;;;10.60;99.90;;;;;;5093441;28;20309;-80
2022/01/01 04:50:58;;;;;;;32.58;29.13;;;10.60;99.90;;;;;;5100552;27;20192;-80
2022/01/01 04:53:25;;;;;;;33.80;30.25;;;10.40;99.90;;;;;;5091242;27;20554;-81
2022/01/01 04:55:53;;;;;;;32.85;29.35;;;10.30;99.90;;;;;;5098172;28;20241;-81
2022/01/01 04:58:20;;;;;;;34.72;31.10;;;10.20;99.90;;;;;;5094461;28;20294;-82
2022/01/01 05:00:47;;;;;;;33.80;30.40;;;10.10;99.90;;;;;;5101858;27;20217;-81
2022/01/01 05:03:14;;;;;;;36.05;32.25;;;10.10;99.90;;;;;;5098699;28;20203;-80
2022/01/01 05:05:41;;;;;;;34.35;30.85;;;9.90;99.90;;;;;;5101795;28;20222;-81
2022/01/01 05:08:08;;;;;;;36.35;32.55;;;9.80;99.90;;;;;;5099912;28;20693;-80
2022/01/01 05:10:35;;;;;;;35.38;31.65;;;9.80;99.90;;;;;;5101614;28;20644;-80
2022/01/01 05:13:03;;;;;;;32.97;29.58;;;9.70;99.90;;;;;;5100750;28;20199;-81
2022/01/01 05:15:30;;;;;;;33.00;29.65;;;9.60;99.90;;;;;;5112016;28;20260;-80
2022/01/01 05:17:57;;;;;;;34.55;31.00;;;9.60;99.90;;;;;;5104388;28;20308;-80
2022/01/01 05:20:25;;;;;;;31.58;28.23;;;9.50;99.90;;;;;;5105467;28;20198;-82
2022/01/01 05:22:52;;;;;;;33.22;29.83;;;9.50;99.90;;;;;;5092847;27;20665;-81
2022/01/01 05:25:19;;;;;;;32.33;28.70;;;9.50;99.90;;;;;;5092915;28;20563;-81
2022/01/01 05:27:46;;;;;;;30.55;27.42;;;9.50;99.90;;;;;;5096408;28;21341;-81
2022/01/01 05:30:14;;;;;;;28.60;25.58;;;9.50;99.90;;;;;;5097530;28;20209;-81
2022/01/01 05:32:41;;;;;;;28.95;26.00;;;9.40;99.90;;;;;;5102482;28;20213;-81
2022/01/01 05:35:08;;;;;;;26.90;24.13;;;9.40;99.90;;;;;;5095032;28;20220;-80
2022/01/01 05:37:35;;;;;;;27.98;24.17;;;9.40;99.90;;;;;;5094087;27;20292;-79
2022/01/01 05:40:02;;;;;;;24.73;22.13;;;9.40;99.90;;;;;;5093113;28;20198;-79
2022/01/01 05:42:29;;;;;;;26.25;21.70;;;9.40;99.90;;;;;;5096203;28;20714;-80
2022/01/01 05:44:57;;;;;;;24.33;21.73;;;9.40;99.90;;;;;;5095452;27;20710;-80
2022/01/01 05:47:25;;;;;;;22.10;19.83;;;9.50;99.90;;;;;;5102866;28;20745;-80
2022/01/01 05:49:52;;;;;;;24.08;21.67;;;9.50;99.90;;;;;;5092964;27;20201;-80
2022/01/01 05:52:19;;;;;;;23.42;20.90;;;9.50;99.90;;;;;;5092579;27;20252;-80
2022/01/01 05:54:46;;;;;;;22.38;19.50;;;9.50;99.90;;;;;;5091303;28;20192;-82
2022/01/01 05:57:14;;;;;;;21.85;19.55;;;9.60;99.90;;;;;;5092667;28;20262;-82
2022/01/01 05:59:42;;;;;;;22.77;20.38;;;9.60;99.90;;;;;;5094128;28;20218;-82
2022/01/01 06:02:09;;;;;;;23.52;20.70;;;9.60;99.90;;;;;;5094065;27;20282;-84
2022/01/01 06:04:38;;;;;;;24.45;21.13;;;9.70;99.90;;;;;;5095503;28;20222;-84
2022/01/01 06:07:07;;;;;;;21.80;19.52;;;9.60;99.90;;;;;;5093398;28;20306;-82
2022/01/01 06:09:34;;;;;;;22.65;20.30;;;9.70;99.90;;;;;;5094032;28;20216;-81
2022/01/01 06:12:01;;;;;;;23.15;20.75;;;9.70;99.90;;;;;;5098389;27;20266;-80
2022/01/01 06:14:28;;;;;;;21.20;19.00;;;9.70;99.90;;;;;;5102883;28;20761;-81
2022/01/01 06:16:54;;;;;;;21.73;19.67;;;9.70;99.90;;;;;;5100030;28;20611;-81
2022/01/01 06:19:21;;;;;;;19.60;17.60;;;9.70;99.90;;;;;;5098963;28;20705;-80
2022/01/01 06:21:50;;;;;;;22.60;18.98;;;9.70;99.90;;;;;;5091831;27;20279;-81
2022/01/01 06:24:17;;;;;;;20.27;18.20;;;9.70;99.90;;;;;;5092261;27;20692;-83
2022/01/01 06:26:44;;;;;;;20.63;18.55;;;9.80;99.90;;;;;;5103253;28;20293;-84
2022/01/01 06:29:11;;;;;;;20.10;17.95;;;9.80;99.90;;;;;;5105299;28;20234;-83
2022/01/01 06:31:38;;;;;;;19.38;17.38;;;9.90;99.90;;;;;;5101140;28;20206;-83
2022/01/01 06:34:05;;;;;;;19.67;17.63;;;10.00;99.90;;;;;;5106336;28;20273;-83
2022/01/01 06:36:32;;;;;;;19.70;17.70;;;10.00;99.90;;;;;;5093836;27;20214;-83
2022/01/01 06:39:00;;;;;;;18.65;16.75;;;10.00;99.90;;;;;;5094147;28;20301;-83
2022/01/01 06:41:27;;;;;;;17.73;15.90;;;10.00;99.90;;;;;;5102902;28;20227;-83
2022/01/01 06:43:54;;;;;;;17.17;15.40;;;10.00;99.90;;;;;;5094534;28;20267;-83
2022/01/01 06:46:21;;;;;;;18.75;16.80;;;9.90;99.90;;;;;;5107112;28;20285;-83
2022/01/01 06:48:49;;;;;;;21.85;19.50;;;9.90;99.90;;;;;;5092716;28;20215;-83
2022/01/01 06:51:16;;;;;;;20.27;18.25;;;9.90;99.90;;;;;;5091452;28;20291;-83
2022/01/01 06:53:43;;;;;;;21.13;19.02;;;9.90;99.90;;;;;;5091540;28;20203;-83
2022/01/01 06:56:12;;;;;;;23.00;20.38;;;9.90;99.90;;;;;;5097910;28;20221;-83
2022/01/01 06:58:39;;;;;;;20.75;18.70;;;9.80;99.90;;;;;;5101682;28;20223;-83
2022/01/01 07:01:07;;;;;;;21.63;17.73;;;9.80;99.90;;;;;;5095522;27;20210;-83
2022/01/01 07:03:34;;;;;;;21.45;19.25;;;9.70;99.90;;;;;;5101403;28;20203;-81
2022/01/01 07:06:01;;;;;;;20.95;18.75;;;9.70;99.90;;;;;;5098891;28;20304;-82
2022/01/01 07:08:28;;;;;;;20.75;18.55;;;9.60;99.90;;;;;;5094062;27;20234;-82
2022/01/01 07:10:55;;;;;;;21.05;18.95;;;9.60;99.90;;;;;;5098522;28;20642;-82
2022/01/01 07:13:24;;;;;;;20.95;18.85;;;9.50;99.90;;;;;;5092655;28;20206;-81
2022/01/01 07:15:51;;;;;;;19.58;17.58;;;9.40;99.90;;;;;;5093173;28;20199;-81
2022/01/01 07:18:19;;;;;;;21.58;19.38;;;9.40;99.90;;;;;;5099290;28;20232;-83
2022/01/01 07:20:46;;;;;;;19.98;17.98;;;9.30;99.90;;;;;;5104070;28;20199;-81
2022/01/01 07:23:12;;;;;;;19.65;17.50;;;9.30;99.90;;;;;;5097893;28;20209;-81
2022/01/01 07:25:40;;;;;;;21.13;18.70;;;9.30;99.90;;;;;;5095416;28;20232;-82
2022/01/01 07:28:07;;;;;;;18.10;16.20;;;9.30;99.90;;;;;;5094179;28;20233;-82
2022/01/01 07:30:35;;;;;;;18.88;16.98;;;9.30;99.90;;;;;;5095887;28;20627;-82
2022/01/01 07:33:03;;;;;;;17.70;15.93;;;9.30;99.90;;;;;;5099476;28;20660;-81
2022/01/01 07:35:29;;;;;;;17.90;16.10;;;9.30;99.90;;;;;;5091566;28;20200;-81
2022/01/01 07:37:56;;;;;;;18.80;15.65;;;9.30;99.90;;;;;;5097096;28;20245;-81
2022/01/01 07:40:24;;;;;;;18.52;16.60;;;9.20;99.90;;;;;;5096871;28;20198;-80
2022/01/01 07:42:50;;;;;;;17.95;16.13;;;9.20;99.90;;;;;;5093373;28;20198;-80
2022/01/01 07:45:17;;;;;;;17.52;15.77;;;9.20;99.90;;;;;;5096307;28;20194;-81
2022/01/01 07:47:46;;;;;;;18.02;16.17;;;9.20;99.90;;;;;;5093631;28;20230;-83
2022/01/01 07:50:13;;;;;;;17.63;15.80;;;9.20;99.90;;;;;;5099962;28;20637;-82
2022/01/01 07:52:40;;;;;;;16.67;14.98;;;9.20;99.90;;;;;;5094976;28;20216;-82
2022/01/01 07:55:09;;;;;;;16.15;14.50;;;9.20;99.90;;;;;;5095770;28;20622;-80
2022/01/01 07:57:36;;;;;;;16.80;15.05;;;9.20;99.90;;;;;;5096346;28;20702;-81
2022/01/01 08:00:07;;;;;;;17.45;15.02;;;9.30;99.90;;;;;;5104101;28;20201;-83
2022/01/01 08:02:39;;;;;;;16.38;14.70;;;9.30;99.90;;;;;;5096792;28;20189;-81
2022/01/01 08:05:10;;;;;;;15.07;13.48;;;9.30;99.90;;;;;;5101935;27;20198;-81
2022/01/01 08:07:37;;;;;;;15.15;13.43;;;9.40;99.90;;;;;;5096457;27;20257;-81
2022/01/01 08:10:05;;;;;;;14.60;13.07;;;9.50;99.90;;;;;;5115513;28;20179;-80
2022/01/01 08:12:32;;;;;;;13.48;12.05;;;9.60;99.90;;;;;;5126799;28;20847;-80
2022/01/01 08:14:59;;;;;;;12.45;11.27;;;9.60;99.90;;;;;;5120399;27;20213;-83
2022/01/01 08:17:27;;;;;;;12.52;11.32;;;9.70;99.90;;;;;;5115708;28;20215;-80
2022/01/01 08:19:54;;;;;;;12.75;11.35;;;9.80;99.90;;;;;;5103066;27;20203;-81
2022/01/01 08:22:22;;;;;;;12.50;11.20;;;9.80;99.90;;;;;;5114779;28;20223;-78
2022/01/01 08:24:49;;;;;;;13.20;11.90;;;9.90;99.90;;;;;;5123229;28;20201;-79
2022/01/01 08:27:17;;;;;;;12.57;11.38;;;9.80;99.90;;;;;;5122065;28;20224;-80
2022/01/01 08:29:44;;;;;;;12.25;10.95;;;9.80;99.90;;;;;;5118787;27;20206;-81
2022/01/01 08:32:11;;;;;;;14.18;11.65;;;9.90;99.90;;;;;;5118188;28;20204;-80
2022/01/01 08:34:38;;;;;;;11.68;10.57;;;10.10;99.90;;;;;;5107427;28;20203;-80
2022/01/01 08:37:06;;;;;;;12.35;10.88;;;10.20;99.90;;;;;;5097043;28;20642;-80
2022/01/01 08:39:34;;;;;;;10.77;9.77;;;10.30;99.90;;;;;;5111795;28;20289;-81
2022/01/01 08:42:02;;;;;;;11.30;10.20;;;10.40;99.90;;;;;;5106408;28;20247;-80
2022/01/01 08:44:30;;;;;;;11.20;10.10;;;10.60;99.90;;;;;;5097493;28;20203;-80
2022/01/01 08:46:57;;;;;;;11.10;10.02;;;10.70;99.90;;;;;;5105149;28;20593;-80
2022/01/01 08:49:24;;;;;;;12.07;10.80;;;10.80;99.90;;;;;;5096359;27;20290;-80
2022/01/01 08:51:55;;;;;;;10.73;9.63;;;11.00;99.90;;;;;;5097189;28;20227;-80
2022/01/01 08:54:22;;;;;;;10.43;9.38;;;11.10;99.90;;;;;;5099760;28;20196;-86
2022/01/01 08:56:51;;;;;;;9.45;8.55;;;11.30;99.90;;;;;;5104499;28;20647;-82
2022/01/01 08:59:18;;;;;;;9.93;9.02;;;11.50;99.90;;;;;;5101332;28;20750;-85
2022/01/01 09:01:45;;;;;;;10.63;9.63;;;11.70;99.90;;;;;;5099348;28;20632;-81
2022/01/01 09:04:12;;;;;;;9.95;8.95;;;12.10;99.90;;;;;;5097782;28;20345;-80
2022/01/01 09:06:39;;;;;;;9.18;8.32;;;12.40;99.90;;;;;;5103647;27;20203;-81
2022/01/01 09:09:06;;;;;;;9.90;9.00;;;12.60;99.90;;;;;;5094329;28;20227;-81
2022/01/01 09:11:33;;;;;;;10.50;9.50;;;12.80;99.90;;;;;;5101559;28;20195;-83
2022/01/01 09:14:01;;;;;;;9.10;8.23;;;13.10;99.90;;;;;;5100760;28;20582;-83
2022/01/01 09:16:30;;;;;;;10.50;9.40;;;13.40;99.90;;;;;;5103418;28;20454;-81
2022/01/01 09:18:57;;;;;;;9.88;8.98;;;13.60;99.90;;;;;;5107208;28;20215;-84
2022/01/01 09:21:25;;;;;;;9.80;8.90;;;13.90;99.90;;;;;;5101921;28;20194;-83
2022/01/01 09:23:53;;;;;;;9.30;8.30;;;14.20;99.90;;;;;;5094081;28;20461;-84
2022/01/01 09:26:20;;;;;;;8.93;8.03;;;14.50;99.90;;;;;;5105519;28;20512;-80
2022/01/01 09:28:47;;;;;;;8.00;7.30;;;15.50;99.90;;;;;;5095039;28;20491;-81
2022/01/01 09:31:15;;;;;;;8.00;7.30;;;16.90;99.90;;;;;;5104248;27;21019;-81
2022/01/01 09:33:42;;;;;;;7.93;7.23;;;18.30;99.90;;;;;;5108978;27;21682;-81
2022/01/01 09:36:14;;;;;;;7.07;6.47;;;19.60;99.90;;;;;;5098217;28;20453;-81
2022/01/01 09:38:41;;;;;;;7.10;6.50;;;20.70;99.90;;;;;;5098294;28;20488;-84
2022/01/01 09:41:09;;;;;;;6.77;6.07;;;21.50;99.90;;;;;;5108621;28;20827;-80
2022/01/01 09:43:37;;;;;;;6.17;5.57;;;22.10;98.80;;;;;;5097185;28;20967;-80
2022/01/01 09:46:05;;;;;;;5.37;4.97;;;22.70;96.40;;;;;;5112750;28;20459;-80
2022/01/01 09:48:33;;;;;;;5.30;4.90;;;23.10;94.40;;;;;;5098500;28;20481;-80
2022/01/01 09:51:02;;;;;;;4.70;4.30;;;23.30;94.10;;;;;;5092942;28;20961;-80
2022/01/01 09:53:31;;;;;;;5.30;4.90;;;23.70;92.70;;;;;;5101419;28;20549;-79
2022/01/01 09:56:00;;;;;;;4.73;4.33;;;23.90;91.70;;;;;;5093865;28;20457;-80
2022/01/01 09:58:29;;;;;;;4.60;4.17;;;24.20;90.50;;;;;;5093499;28;20568;-80
2022/01/01 10:00:56;;;;;;;5.10;4.70;;;24.40;88.70;;;;;;5110238;28;20449;-81
2022/01/01 10:03:29;;;;;;;5.03;4.63;;;24.60;87.80;;;;;;5112982;28;20460;-78
2022/01/01 10:06:05;;;;;;;4.60;4.30;;;24.60;86.90;;;;;;5111497;28;20444;-80
2022/01/01 10:08:33;;;;;;;6.23;4.70;;;24.50;86.10;;;;;;5090961;28;20916;-79
2022/01/01 10:11:01;;;;;;;4.57;4.10;;;24.40;84.50;;;;;;5100736;28;20439;-80
2022/01/01 10:13:29;;;;;;;4.83;4.43;;;24.00;84.40;;;;;;5096788;28;21057;-80
2022/01/01 10:15:57;;;;;;;5.20;4.80;;;23.60;86.00;;;;;;5111888;28;20565;-80
2022/01/01 10:18:28;;;;;;;5.83;5.30;;;23.50;85.90;;;;;;5113105;28;20506;-80
2022/01/01 10:21:00;;;;;;;4.90;4.50;;;23.30;87.30;;;;;;5104293;28;20461;-80
2022/01/01 10:23:31;;;;;;;4.93;4.53;;;23.40;86.20;;;;;;5101578;28;20463;-80
2022/01/01 10:29:09;;;;;;;5.90;5.40;;;23.90;83.60;;;;;;5095174;28;20576;-80
2022/01/01 10:31:38;;;;;;;5.73;5.33;;;23.80;83.70;;;;;;5092302;28;21015;-80
2022/01/01 10:34:15;;;;;;;6.30;5.80;;;23.80;83.60;;;;;;5100665;28;20447;-80
2022/01/01 10:36:45;;;;;;;6.77;6.17;;;23.40;83.70;;;;;;5112015;28;20531;-80
2022/01/01 10:39:18;;;;;;;5.80;5.30;;;23.00;84.40;;;;;;5111876;28;20463;-80
2022/01/01 10:41:47;;;;;;;7.20;6.53;;;22.80;87.10;;;;;;5098462;27;20458;-79
2022/01/01 10:44:15;;;;;;;7.43;6.73;;;22.80;86.80;;;;;;5092384;28;21190;-80
2022/01/01 10:46:42;;;;;;;7.10;6.50;;;22.80;87.10;;;;;;5092784;28;20456;-79
2022/01/01 10:49:50;;;;;;;7.00;6.40;;;22.80;85.90;;;;;;5092134;28;20989;-80
2022/01/01 10:52:20;;;;;;;6.23;5.73;;;22.60;85.90;;;;;;5109079;28;20965;-80
2022/01/01 10:54:56;;;;;;;6.83;6.23;;;22.80;86.10;;;;;;5099536;28;20544;-79
2022/01/01 10:57:26;;;;;;;6.80;6.20;;;22.90;84.60;;;;;;5091622;28;20569;-80
2022/01/01 11:00:08;;;;;;;6.60;6.10;;;22.70;85.30;;;;;;5099983;28;21038;-80
2022/01/01 11:02:36;;;;;;;7.47;6.87;;;22.60;86.00;;;;;;5092146;28;20454;-80
2022/01/01 11:05:04;;;;;;;6.30;5.80;;;22.60;86.30;;;;;;5092368;28;20488;-79
2022/01/01 11:07:32;;;;;;;6.37;5.87;;;22.30;86.50;;;;;;5109205;28;20532;-80
2022/01/01 11:10:01;;;;;;;6.13;5.53;;;22.30;87.70;;;;;;5111340;28;21141;-80
2022/01/01 11:12:29;;;;;;;6.50;6.00;;;22.60;86.40;;;;;;5094584;28;20454;-80
2022/01/01 11:14:59;;;;;;;6.33;5.73;;;22.50;86.10;;;;;;5111724;28;20490;-79
2022/01/01 11:17:26;;;;;;;6.20;5.70;;;22.30;85.50;;;;;;5105502;28;20483;-79
2022/01/01 11:19:54;;;;;;;6.20;5.73;;;22.20;85.40;;;;;;5095055;28;20982;-80
2022/01/01 11:22:22;;;;;;;6.50;5.60;;;22.00;85.60;;;;;;5111940;28;20496;-80
2022/01/01 11:24:49;;;;;;;5.70;5.20;;;21.70;85.50;;;;;;5111152;28;20452;-80
2022/01/01 11:27:19;;;;;;;5.33;4.83;;;21.50;86.70;;;;;;5105455;28;20469;-79
2022/01/01 11:29:50;;;;;;;5.67;5.17;;;21.40;86.40;;;;;;5091580;28;20550;-80
2022/01/01 11:32:22;;;;;;;5.60;5.20;;;21.10;87.30;;;;;;5106762;28;20493;-80
2022/01/01 11:34:52;;;;;;;7.17;5.63;;;20.70;87.90;;;;;;5100776;28;20487;-80
2022/01/01 11:37:22;;;;;;;6.17;5.67;;;20.60;88.40;;;;;;5098722;28;20476;-80
2022/01/01 11:39:55;;;;;;;6.33;5.73;;;20.70;88.30;;;;;;5095443;28;20880;-81
2022/01/01 11:42:24;;;;;;;6.07;5.57;;;20.80;87.70;;;;;;5103467;28;20782;-79
2022/01/01 11:44:53;;;;;;;5.70;5.23;;;20.90;87.80;;;;;;5096197;28;20540;-79
2022/01/01 11:47:22;;;;;;;5.40;4.90;;;21.00;88.10;;;;;;5102075;28;20473;-79
2022/01/01 11:49:52;;;;;;;5.23;4.80;;;21.30;86.70;;;;;;5097243;28;20993;-79
2022/01/01 11:52:36;;;;;;;5.10;4.70;;;21.00;86.30;;;;;;5096772;28;20459;-79
2022/01/01 11:55:06;;;;;;;5.13;4.73;;;21.10;87.00;;;;;;5095711;28;20456;-79
2022/01/01 11:57:36;;;;;;;5.00;4.60;;;21.20;86.70;;;;;;5095381;28;20469;-79
2022/01/01 12:00:11;;;;;;;5.50;5.10;;;21.50;86.30;;;;;;5095945;28;20438;-79
2022/01/01 12:02:46;;;;;;;6.47;5.97;;;21.70;85.60;;;;;;5097712;28;20533;-80
2022/01/01 12:05:20;;;;;;;6.83;6.23;;;21.90;85.10;;;;;;5096377;28;20500;-79
2022/01/01 12:07:55;;;;;;;6.90;6.30;;;21.80;85.90;;;;;;5094920;28;20979;-80
2022/01/01 12:10:25;;;;;;;6.13;5.60;;;21.60;86.00;;;;;;5102642;28;20449;-80
2022/01/01 12:12:56;;;;;;;6.60;6.00;;;21.50;86.10;;;;;;5099095;28;20473;-79
2022/01/01 12:15:38;;;;;;;6.50;5.40;;;21.40;86.20;;;;;;5094466;27;20527;-80
2022/01/01 12:18:07;;;;;;;5.83;5.27;;;21.30;85.80;;;;;;5104872;28;20507;-80
2022/01/01 12:20:36;;;;;;;6.27;5.70;;;21.30;86.40;;;;;;5114791;28;20475;-80
2022/01/01 12:23:06;;;;;;;6.00;5.50;;;21.20;86.80;;;;;;5114751;28;20444;-80
2022/01/01 12:25:34;;;;;;;6.27;5.67;;;21.10;87.50;;;;;;5102221;28;20961;-80
2022/01/01 12:28:06;;;;;;;5.73;5.23;;;21.00;88.20;;;;;;5094858;28;20988;-80
2022/01/01 12:30:36;;;;;;;6.00;5.50;;;20.90;87.70;;;;;;5094896;28;20464;-80
2022/01/01 12:33:04;;;;;;;5.77;5.37;;;20.80;88.40;;;;;;5105317;28;20524;-80
2022/01/01 12:35:40;;;;;;;6.07;5.57;;;20.70;89.20;;;;;;5094342;28;20486;-80
2022/01/01 12:38:07;;;;;;;6.57;5.40;;;20.50;89.90;;;;;;5095053;28;20837;-80
2022/01/01 12:40:35;;;;;;;6.50;5.87;;;20.40;90.10;;;;;;5113662;28;20953;-80
2022/01/01 12:43:10;;;;;;;6.10;5.60;;;20.00;89.90;;;;;;5098580;28;20453;-79
2022/01/01 12:45:41;;;;;;;5.63;5.00;;;19.70;90.40;;;;;;5103459;28;20463;-80